<?xml version="1.0" encoding="UTF-8" standalone="no" ?>
<gpx xmlns="http://www.topografix.com/GPX/1/1" xmlns:xsi="http://www.w3.org/2001/XMLSchema-instance" xsi:schemaLocation="http://www.topografix.com/GPX/1/1 http://www.topografix.com/GPX/1/1/gpx.xsd" version="1.1" creator="VisuGPX - https://www.visugpx.com">
  <metadata>
    <name>VOK Aussonelle V3b 6.8Km</name>
  </metadata>
  <trk>
    <name><![CDATA[VOK Aussonelle V3b 6.8Km]]></name>
    <trkseg>
      <trkpt lat="43.52939" lon="1.11239">
        <ele>304</ele>
        <time>2019-09-29T11:42:33+02:00</time>
      </trkpt>
      <trkpt lat="43.5294" lon="1.11252">
        <ele>304</ele>
        <time>2019-09-29T11:42:41+02:00</time>
      </trkpt>
      <trkpt lat="43.52943" lon="1.11265">
        <ele>304</ele>
        <time>2019-09-29T11:42:49+02:00</time>
      </trkpt>
      <trkpt lat="43.5295" lon="1.11276">
        <ele>304</ele>
        <time>2019-09-29T11:42:57+02:00</time>
      </trkpt>
      <trkpt lat="43.52957" lon="1.11286">
        <ele>303</ele>
        <time>2019-09-29T11:43:05+02:00</time>
      </trkpt>
      <trkpt lat="43.52963" lon="1.11301">
        <ele>303</ele>
        <time>2019-09-29T11:43:16+02:00</time>
      </trkpt>
      <trkpt lat="43.52968" lon="1.11313">
        <ele>302</ele>
        <time>2019-09-29T11:43:23+02:00</time>
      </trkpt>
      <trkpt lat="43.52973" lon="1.11324">
        <ele>302</ele>
        <time>2019-09-29T11:43:31+02:00</time>
      </trkpt>
      <trkpt lat="43.52978" lon="1.11336">
        <ele>302</ele>
        <time>2019-09-29T11:43:39+02:00</time>
      </trkpt>
      <trkpt lat="43.52984" lon="1.11348">
        <ele>302</ele>
        <time>2019-09-29T11:43:48+02:00</time>
      </trkpt>
      <trkpt lat="43.52989" lon="1.11358">
        <ele>301</ele>
        <time>2019-09-29T11:43:55+02:00</time>
      </trkpt>
      <trkpt lat="43.52994" lon="1.11371">
        <ele>301</ele>
        <time>2019-09-29T11:44:03+02:00</time>
      </trkpt>
      <trkpt lat="43.52999" lon="1.11382">
        <ele>301</ele>
        <time>2019-09-29T11:44:11+02:00</time>
      </trkpt>
      <trkpt lat="43.53004" lon="1.11393">
        <ele>301</ele>
        <time>2019-09-29T11:44:18+02:00</time>
      </trkpt>
      <trkpt lat="43.53009" lon="1.11405">
        <ele>301</ele>
        <time>2019-09-29T11:44:26+02:00</time>
      </trkpt>
      <trkpt lat="43.53015" lon="1.11415">
        <ele>300</ele>
        <time>2019-09-29T11:44:34+02:00</time>
      </trkpt>
      <trkpt lat="43.53019" lon="1.11429">
        <ele>300</ele>
        <time>2019-09-29T11:44:43+02:00</time>
      </trkpt>
      <trkpt lat="43.53024" lon="1.1144">
        <ele>300</ele>
        <time>2019-09-29T11:44:50+02:00</time>
      </trkpt>
      <trkpt lat="43.53027" lon="1.11454">
        <ele>300</ele>
        <time>2019-09-29T11:44:59+02:00</time>
      </trkpt>
      <trkpt lat="43.53032" lon="1.11465">
        <ele>300</ele>
        <time>2019-09-29T11:45:07+02:00</time>
      </trkpt>
      <trkpt lat="43.53037" lon="1.11478">
        <ele>300</ele>
        <time>2019-09-29T11:45:15+02:00</time>
      </trkpt>
      <trkpt lat="43.53043" lon="1.11489">
        <ele>300</ele>
        <time>2019-09-29T11:45:23+02:00</time>
      </trkpt>
      <trkpt lat="43.53048" lon="1.115">
        <ele>300</ele>
        <time>2019-09-29T11:45:30+02:00</time>
      </trkpt>
      <trkpt lat="43.53051" lon="1.11512">
        <ele>300</ele>
        <time>2019-09-29T11:45:38+02:00</time>
      </trkpt>
      <trkpt lat="43.53055" lon="1.11524">
        <ele>300</ele>
        <time>2019-09-29T11:45:46+02:00</time>
      </trkpt>
      <trkpt lat="43.53059" lon="1.11536">
        <ele>300</ele>
        <time>2019-09-29T11:45:53+02:00</time>
      </trkpt>
      <trkpt lat="43.53063" lon="1.11547">
        <ele>300</ele>
        <time>2019-09-29T11:46:01+02:00</time>
      </trkpt>
      <trkpt lat="43.53068" lon="1.1156">
        <ele>300</ele>
        <time>2019-09-29T11:46:09+02:00</time>
      </trkpt>
      <trkpt lat="43.53073" lon="1.11572">
        <ele>300</ele>
        <time>2019-09-29T11:46:17+02:00</time>
      </trkpt>
      <trkpt lat="43.53078" lon="1.11584">
        <ele>300</ele>
        <time>2019-09-29T11:46:25+02:00</time>
      </trkpt>
      <trkpt lat="43.53082" lon="1.11595">
        <ele>300</ele>
        <time>2019-09-29T11:46:32+02:00</time>
      </trkpt>
      <trkpt lat="43.53087" lon="1.11605">
        <ele>300</ele>
        <time>2019-09-29T11:46:40+02:00</time>
      </trkpt>
      <trkpt lat="43.53093" lon="1.11615">
        <ele>300</ele>
        <time>2019-09-29T11:46:47+02:00</time>
      </trkpt>
      <trkpt lat="43.531" lon="1.11624">
        <ele>300</ele>
        <time>2019-09-29T11:46:55+02:00</time>
      </trkpt>
      <trkpt lat="43.53106" lon="1.11634">
        <ele>300</ele>
        <time>2019-09-29T11:47:03+02:00</time>
      </trkpt>
      <trkpt lat="43.53113" lon="1.11644">
        <ele>300</ele>
        <time>2019-09-29T11:47:10+02:00</time>
      </trkpt>
      <trkpt lat="43.53118" lon="1.11655">
        <ele>300</ele>
        <time>2019-09-29T11:47:18+02:00</time>
      </trkpt>
      <trkpt lat="43.53126" lon="1.11664">
        <ele>300</ele>
        <time>2019-09-29T11:47:26+02:00</time>
      </trkpt>
      <trkpt lat="43.53132" lon="1.11673">
        <ele>300</ele>
        <time>2019-09-29T11:47:34+02:00</time>
      </trkpt>
      <trkpt lat="43.53139" lon="1.11683">
        <ele>300</ele>
        <time>2019-09-29T11:47:42+02:00</time>
      </trkpt>
      <trkpt lat="43.53146" lon="1.11692">
        <ele>300</ele>
        <time>2019-09-29T11:47:49+02:00</time>
      </trkpt>
      <trkpt lat="43.53153" lon="1.117">
        <ele>300</ele>
        <time>2019-09-29T11:47:57+02:00</time>
      </trkpt>
      <trkpt lat="43.53158" lon="1.1171">
        <ele>300</ele>
        <time>2019-09-29T11:48:04+02:00</time>
      </trkpt>
      <trkpt lat="43.53166" lon="1.1172">
        <ele>300</ele>
        <time>2019-09-29T11:48:12+02:00</time>
      </trkpt>
      <trkpt lat="43.53171" lon="1.1173">
        <ele>299</ele>
        <time>2019-09-29T11:48:20+02:00</time>
      </trkpt>
      <trkpt lat="43.53178" lon="1.1174">
        <ele>299</ele>
        <time>2019-09-29T11:48:27+02:00</time>
      </trkpt>
      <trkpt lat="43.53184" lon="1.11752">
        <ele>298</ele>
        <time>2019-09-29T11:48:36+02:00</time>
      </trkpt>
      <trkpt lat="43.5319" lon="1.11762">
        <ele>298</ele>
        <time>2019-09-29T11:48:43+02:00</time>
      </trkpt>
      <trkpt lat="43.53197" lon="1.1177">
        <ele>297</ele>
        <time>2019-09-29T11:48:51+02:00</time>
      </trkpt>
      <trkpt lat="43.53205" lon="1.1178">
        <ele>297</ele>
        <time>2019-09-29T11:48:59+02:00</time>
      </trkpt>
      <trkpt lat="43.53211" lon="1.11789">
        <ele>296</ele>
        <time>2019-09-29T11:49:07+02:00</time>
      </trkpt>
      <trkpt lat="43.53217" lon="1.118">
        <ele>296</ele>
        <time>2019-09-29T11:49:14+02:00</time>
      </trkpt>
      <trkpt lat="43.53222" lon="1.1181">
        <ele>296</ele>
        <time>2019-09-29T11:49:22+02:00</time>
      </trkpt>
      <trkpt lat="43.53227" lon="1.11822">
        <ele>296</ele>
        <time>2019-09-29T11:49:30+02:00</time>
      </trkpt>
      <trkpt lat="43.5323" lon="1.11835">
        <ele>296</ele>
        <time>2019-09-29T11:49:38+02:00</time>
      </trkpt>
      <trkpt lat="43.53233" lon="1.11849">
        <ele>296</ele>
        <time>2019-09-29T11:49:46+02:00</time>
      </trkpt>
      <trkpt lat="43.53236" lon="1.11861">
        <ele>296</ele>
        <time>2019-09-29T11:49:53+02:00</time>
      </trkpt>
      <trkpt lat="43.53239" lon="1.11873">
        <ele>295</ele>
        <time>2019-09-29T11:50:01+02:00</time>
      </trkpt>
      <trkpt lat="43.5324" lon="1.11885">
        <ele>295</ele>
        <time>2019-09-29T11:50:08+02:00</time>
      </trkpt>
      <trkpt lat="43.53242" lon="1.11899">
        <ele>295</ele>
        <time>2019-09-29T11:50:16+02:00</time>
      </trkpt>
      <trkpt lat="43.53246" lon="1.11911">
        <ele>295</ele>
        <time>2019-09-29T11:50:24+02:00</time>
      </trkpt>
      <trkpt lat="43.53247" lon="1.11924">
        <ele>295</ele>
        <time>2019-09-29T11:50:31+02:00</time>
      </trkpt>
      <trkpt lat="43.53248" lon="1.11936">
        <ele>295</ele>
        <time>2019-09-29T11:50:39+02:00</time>
      </trkpt>
      <trkpt lat="43.53252" lon="1.11948">
        <ele>295</ele>
        <time>2019-09-29T11:50:47+02:00</time>
      </trkpt>
      <trkpt lat="43.53255" lon="1.11962">
        <ele>295</ele>
        <time>2019-09-29T11:50:55+02:00</time>
      </trkpt>
      <trkpt lat="43.53261" lon="1.11973">
        <ele>296</ele>
        <time>2019-09-29T11:51:03+02:00</time>
      </trkpt>
      <trkpt lat="43.53265" lon="1.11986">
        <ele>296</ele>
        <time>2019-09-29T11:51:11+02:00</time>
      </trkpt>
      <trkpt lat="43.53269" lon="1.11998">
        <ele>296</ele>
        <time>2019-09-29T11:51:19+02:00</time>
      </trkpt>
      <trkpt lat="43.53271" lon="1.12011">
        <ele>297</ele>
        <time>2019-09-29T11:51:27+02:00</time>
      </trkpt>
      <trkpt lat="43.53273" lon="1.12024">
        <ele>297</ele>
        <time>2019-09-29T11:51:35+02:00</time>
      </trkpt>
      <trkpt lat="43.53274" lon="1.12037">
        <ele>298</ele>
        <time>2019-09-29T11:51:42+02:00</time>
      </trkpt>
      <trkpt lat="43.53277" lon="1.1205">
        <ele>298</ele>
        <time>2019-09-29T11:51:50+02:00</time>
      </trkpt>
      <trkpt lat="43.53277" lon="1.12063">
        <ele>298</ele>
        <time>2019-09-29T11:51:58+02:00</time>
      </trkpt>
      <trkpt lat="43.53277" lon="1.12076">
        <ele>299</ele>
        <time>2019-09-29T11:52:05+02:00</time>
      </trkpt>
      <trkpt lat="43.53279" lon="1.12089">
        <ele>299</ele>
        <time>2019-09-29T11:52:13+02:00</time>
      </trkpt>
      <trkpt lat="43.53281" lon="1.12102">
        <ele>299</ele>
        <time>2019-09-29T11:52:21+02:00</time>
      </trkpt>
      <trkpt lat="43.53283" lon="1.12116">
        <ele>299</ele>
        <time>2019-09-29T11:52:29+02:00</time>
      </trkpt>
      <trkpt lat="43.53285" lon="1.12129">
        <ele>299</ele>
        <time>2019-09-29T11:52:37+02:00</time>
      </trkpt>
      <trkpt lat="43.53285" lon="1.12141">
        <ele>299</ele>
        <time>2019-09-29T11:52:44+02:00</time>
      </trkpt>
      <trkpt lat="43.53285" lon="1.12154">
        <ele>299</ele>
        <time>2019-09-29T11:52:52+02:00</time>
      </trkpt>
      <trkpt lat="43.53285" lon="1.12167">
        <ele>300</ele>
        <time>2019-09-29T11:52:59+02:00</time>
      </trkpt>
      <trkpt lat="43.53284" lon="1.1218">
        <ele>300</ele>
        <time>2019-09-29T11:53:07+02:00</time>
      </trkpt>
      <trkpt lat="43.53283" lon="1.12193">
        <ele>300</ele>
        <time>2019-09-29T11:53:14+02:00</time>
      </trkpt>
      <trkpt lat="43.53287" lon="1.12205">
        <ele>300</ele>
        <time>2019-09-29T11:53:22+02:00</time>
      </trkpt>
      <trkpt lat="43.53286" lon="1.12226">
        <ele>300</ele>
        <time>2019-09-29T11:53:34+02:00</time>
      </trkpt>
      <trkpt lat="43.53283" lon="1.12238">
        <ele>300</ele>
        <time>2019-09-29T11:53:41+02:00</time>
      </trkpt>
      <trkpt lat="43.53281" lon="1.12253">
        <ele>300</ele>
        <time>2019-09-29T11:53:50+02:00</time>
      </trkpt>
      <trkpt lat="43.53283" lon="1.12266">
        <ele>300</ele>
        <time>2019-09-29T11:53:58+02:00</time>
      </trkpt>
      <trkpt lat="43.53284" lon="1.1228">
        <ele>300</ele>
        <time>2019-09-29T11:54:06+02:00</time>
      </trkpt>
      <trkpt lat="43.53287" lon="1.12292">
        <ele>300</ele>
        <time>2019-09-29T11:54:13+02:00</time>
      </trkpt>
      <trkpt lat="43.53286" lon="1.12306">
        <ele>300</ele>
        <time>2019-09-29T11:54:22+02:00</time>
      </trkpt>
      <trkpt lat="43.53288" lon="1.12322">
        <ele>300</ele>
        <time>2019-09-29T11:54:31+02:00</time>
      </trkpt>
      <trkpt lat="43.53289" lon="1.12335">
        <ele>300</ele>
        <time>2019-09-29T11:54:39+02:00</time>
      </trkpt>
      <trkpt lat="43.5329" lon="1.12348">
        <ele>300</ele>
        <time>2019-09-29T11:54:47+02:00</time>
      </trkpt>
      <trkpt lat="43.53289" lon="1.12361">
        <ele>300</ele>
        <time>2019-09-29T11:54:54+02:00</time>
      </trkpt>
      <trkpt lat="43.5329" lon="1.12376">
        <ele>300</ele>
        <time>2019-09-29T11:55:03+02:00</time>
      </trkpt>
      <trkpt lat="43.53291" lon="1.12389">
        <ele>300</ele>
        <time>2019-09-29T11:55:11+02:00</time>
      </trkpt>
      <trkpt lat="43.53292" lon="1.12403">
        <ele>300</ele>
        <time>2019-09-29T11:55:19+02:00</time>
      </trkpt>
      <trkpt lat="43.5329" lon="1.12417">
        <ele>300</ele>
        <time>2019-09-29T11:55:27+02:00</time>
      </trkpt>
      <trkpt lat="43.53291" lon="1.12429">
        <ele>300</ele>
        <time>2019-09-29T11:55:35+02:00</time>
      </trkpt>
      <trkpt lat="43.53297" lon="1.12439">
        <ele>300</ele>
        <time>2019-09-29T11:55:42+02:00</time>
      </trkpt>
      <trkpt lat="43.53297" lon="1.12453">
        <ele>300</ele>
        <time>2019-09-29T11:55:50+02:00</time>
      </trkpt>
      <trkpt lat="43.53299" lon="1.12465">
        <ele>300</ele>
        <time>2019-09-29T11:55:57+02:00</time>
      </trkpt>
      <trkpt lat="43.533" lon="1.12479">
        <ele>300</ele>
        <time>2019-09-29T11:56:05+02:00</time>
      </trkpt>
      <trkpt lat="43.533" lon="1.12492">
        <ele>300</ele>
        <time>2019-09-29T11:56:13+02:00</time>
      </trkpt>
      <trkpt lat="43.53301" lon="1.12506">
        <ele>300</ele>
        <time>2019-09-29T11:56:21+02:00</time>
      </trkpt>
      <trkpt lat="43.53303" lon="1.12519">
        <ele>300</ele>
        <time>2019-09-29T11:56:29+02:00</time>
      </trkpt>
      <trkpt lat="43.53304" lon="1.12531">
        <ele>300</ele>
        <time>2019-09-29T11:56:36+02:00</time>
      </trkpt>
      <trkpt lat="43.53305" lon="1.12548">
        <ele>300</ele>
        <time>2019-09-29T11:56:46+02:00</time>
      </trkpt>
      <trkpt lat="43.53307" lon="1.12562">
        <ele>300</ele>
        <time>2019-09-29T11:56:54+02:00</time>
      </trkpt>
      <trkpt lat="43.53308" lon="1.12575">
        <ele>300</ele>
        <time>2019-09-29T11:57:02+02:00</time>
      </trkpt>
      <trkpt lat="43.5331" lon="1.12589">
        <ele>300</ele>
        <time>2019-09-29T11:57:10+02:00</time>
      </trkpt>
      <trkpt lat="43.53313" lon="1.12602">
        <ele>300</ele>
        <time>2019-09-29T11:57:18+02:00</time>
      </trkpt>
      <trkpt lat="43.53314" lon="1.12616">
        <ele>300</ele>
        <time>2019-09-29T11:57:26+02:00</time>
      </trkpt>
      <trkpt lat="43.53317" lon="1.12629">
        <ele>300</ele>
        <time>2019-09-29T11:57:34+02:00</time>
      </trkpt>
      <trkpt lat="43.53321" lon="1.12642">
        <ele>299</ele>
        <time>2019-09-29T11:57:42+02:00</time>
      </trkpt>
      <trkpt lat="43.53312" lon="1.12655">
        <ele>298</ele>
        <time>2019-09-29T11:57:53+02:00</time>
      </trkpt>
      <trkpt lat="43.53303" lon="1.12652">
        <ele>298</ele>
        <time>2019-09-29T11:58:00+02:00</time>
      </trkpt>
      <trkpt lat="43.53313" lon="1.12654">
        <ele>298</ele>
        <time>2019-09-29T11:58:08+02:00</time>
      </trkpt>
      <trkpt lat="43.53321" lon="1.12665">
        <ele>298</ele>
        <time>2019-09-29T11:58:18+02:00</time>
      </trkpt>
      <trkpt lat="43.53324" lon="1.12677">
        <ele>297</ele>
        <time>2019-09-29T11:58:26+02:00</time>
      </trkpt>
      <trkpt lat="43.53326" lon="1.1269">
        <ele>297</ele>
        <time>2019-09-29T11:58:34+02:00</time>
      </trkpt>
      <trkpt lat="43.53329" lon="1.12703">
        <ele>296</ele>
        <time>2019-09-29T11:58:41+02:00</time>
      </trkpt>
      <trkpt lat="43.53331" lon="1.12716">
        <ele>295</ele>
        <time>2019-09-29T11:58:49+02:00</time>
      </trkpt>
      <trkpt lat="43.53331" lon="1.12729">
        <ele>295</ele>
        <time>2019-09-29T11:58:57+02:00</time>
      </trkpt>
      <trkpt lat="43.53335" lon="1.12741">
        <ele>295</ele>
        <time>2019-09-29T11:59:05+02:00</time>
      </trkpt>
      <trkpt lat="43.53337" lon="1.12754">
        <ele>295</ele>
        <time>2019-09-29T11:59:12+02:00</time>
      </trkpt>
      <trkpt lat="43.5334" lon="1.12768">
        <ele>294</ele>
        <time>2019-09-29T11:59:21+02:00</time>
      </trkpt>
      <trkpt lat="43.53343" lon="1.12781">
        <ele>294</ele>
        <time>2019-09-29T11:59:29+02:00</time>
      </trkpt>
      <trkpt lat="43.53347" lon="1.12793">
        <ele>294</ele>
        <time>2019-09-29T11:59:36+02:00</time>
      </trkpt>
      <trkpt lat="43.53348" lon="1.12806">
        <ele>294</ele>
        <time>2019-09-29T11:59:44+02:00</time>
      </trkpt>
      <trkpt lat="43.5335" lon="1.12819">
        <ele>294</ele>
        <time>2019-09-29T11:59:52+02:00</time>
      </trkpt>
      <trkpt lat="43.53353" lon="1.12831">
        <ele>294</ele>
        <time>2019-09-29T11:59:59+02:00</time>
      </trkpt>
      <trkpt lat="43.53354" lon="1.12844">
        <ele>294</ele>
        <time>2019-09-29T12:00:07+02:00</time>
      </trkpt>
      <trkpt lat="43.53357" lon="1.12857">
        <ele>294</ele>
        <time>2019-09-29T12:00:15+02:00</time>
      </trkpt>
      <trkpt lat="43.53357" lon="1.1287">
        <ele>294</ele>
        <time>2019-09-29T12:00:22+02:00</time>
      </trkpt>
      <trkpt lat="43.53358" lon="1.12884">
        <ele>294</ele>
        <time>2019-09-29T12:00:31+02:00</time>
      </trkpt>
      <trkpt lat="43.53359" lon="1.12899">
        <ele>294</ele>
        <time>2019-09-29T12:00:39+02:00</time>
      </trkpt>
      <trkpt lat="43.53361" lon="1.12911">
        <ele>294</ele>
        <time>2019-09-29T12:00:47+02:00</time>
      </trkpt>
      <trkpt lat="43.53365" lon="1.12924">
        <ele>294</ele>
        <time>2019-09-29T12:00:55+02:00</time>
      </trkpt>
      <trkpt lat="43.53367" lon="1.12936">
        <ele>294</ele>
        <time>2019-09-29T12:01:02+02:00</time>
      </trkpt>
      <trkpt lat="43.53371" lon="1.12949">
        <ele>294</ele>
        <time>2019-09-29T12:01:10+02:00</time>
      </trkpt>
      <trkpt lat="43.53375" lon="1.12962">
        <ele>294</ele>
        <time>2019-09-29T12:01:19+02:00</time>
      </trkpt>
      <trkpt lat="43.53376" lon="1.12975">
        <ele>294</ele>
        <time>2019-09-29T12:01:26+02:00</time>
      </trkpt>
      <trkpt lat="43.53379" lon="1.12987">
        <ele>294</ele>
        <time>2019-09-29T12:01:34+02:00</time>
      </trkpt>
      <trkpt lat="43.5339" lon="1.12987">
        <ele>294</ele>
        <time>2019-09-29T12:01:42+02:00</time>
      </trkpt>
      <trkpt lat="43.53399" lon="1.12986">
        <ele>293</ele>
        <time>2019-09-29T12:01:49+02:00</time>
      </trkpt>
      <trkpt lat="43.5341" lon="1.12983">
        <ele>293</ele>
        <time>2019-09-29T12:01:59+02:00</time>
      </trkpt>
      <trkpt lat="43.53419" lon="1.12981">
        <ele>292</ele>
        <time>2019-09-29T12:02:06+02:00</time>
      </trkpt>
      <trkpt lat="43.53428" lon="1.12977">
        <ele>291</ele>
        <time>2019-09-29T12:02:14+02:00</time>
      </trkpt>
      <trkpt lat="43.5344" lon="1.12966">
        <ele>289</ele>
        <time>2019-09-29T12:02:25+02:00</time>
      </trkpt>
      <trkpt lat="43.53448" lon="1.12961">
        <ele>287</ele>
        <time>2019-09-29T12:02:33+02:00</time>
      </trkpt>
      <trkpt lat="43.53458" lon="1.12953">
        <ele>286</ele>
        <time>2019-09-29T12:02:42+02:00</time>
      </trkpt>
      <trkpt lat="43.53468" lon="1.12943">
        <ele>284</ele>
        <time>2019-09-29T12:02:52+02:00</time>
      </trkpt>
      <trkpt lat="43.53476" lon="1.12938">
        <ele>282</ele>
        <time>2019-09-29T12:02:59+02:00</time>
      </trkpt>
      <trkpt lat="43.53486" lon="1.12936">
        <ele>281</ele>
        <time>2019-09-29T12:03:07+02:00</time>
      </trkpt>
      <trkpt lat="43.53496" lon="1.12934">
        <ele>279</ele>
        <time>2019-09-29T12:03:15+02:00</time>
      </trkpt>
      <trkpt lat="43.53505" lon="1.12929">
        <ele>278</ele>
        <time>2019-09-29T12:03:24+02:00</time>
      </trkpt>
      <trkpt lat="43.53514" lon="1.12923">
        <ele>277</ele>
        <time>2019-09-29T12:03:31+02:00</time>
      </trkpt>
      <trkpt lat="43.53522" lon="1.12917">
        <ele>276</ele>
        <time>2019-09-29T12:03:38+02:00</time>
      </trkpt>
      <trkpt lat="43.53531" lon="1.12912">
        <ele>274</ele>
        <time>2019-09-29T12:03:46+02:00</time>
      </trkpt>
      <trkpt lat="43.53542" lon="1.12909">
        <ele>272</ele>
        <time>2019-09-29T12:03:55+02:00</time>
      </trkpt>
      <trkpt lat="43.53552" lon="1.12905">
        <ele>271</ele>
        <time>2019-09-29T12:04:04+02:00</time>
      </trkpt>
      <trkpt lat="43.53562" lon="1.12905">
        <ele>269</ele>
        <time>2019-09-29T12:04:12+02:00</time>
      </trkpt>
      <trkpt lat="43.53571" lon="1.12902">
        <ele>268</ele>
        <time>2019-09-29T12:04:20+02:00</time>
      </trkpt>
      <trkpt lat="43.53579" lon="1.12907">
        <ele>267</ele>
        <time>2019-09-29T12:04:28+02:00</time>
      </trkpt>
      <trkpt lat="43.53588" lon="1.12912">
        <ele>265</ele>
        <time>2019-09-29T12:04:36+02:00</time>
      </trkpt>
      <trkpt lat="43.53598" lon="1.12908">
        <ele>264</ele>
        <time>2019-09-29T12:04:44+02:00</time>
      </trkpt>
      <trkpt lat="43.53607" lon="1.12905">
        <ele>263</ele>
        <time>2019-09-29T12:04:53+02:00</time>
      </trkpt>
      <trkpt lat="43.53616" lon="1.12902">
        <ele>263</ele>
        <time>2019-09-29T12:05:00+02:00</time>
      </trkpt>
      <trkpt lat="43.53625" lon="1.12899">
        <ele>262</ele>
        <time>2019-09-29T12:05:08+02:00</time>
      </trkpt>
      <trkpt lat="43.53635" lon="1.12898">
        <ele>261</ele>
        <time>2019-09-29T12:05:17+02:00</time>
      </trkpt>
      <trkpt lat="43.53644" lon="1.12895">
        <ele>260</ele>
        <time>2019-09-29T12:05:24+02:00</time>
      </trkpt>
      <trkpt lat="43.53653" lon="1.12893">
        <ele>259</ele>
        <time>2019-09-29T12:05:32+02:00</time>
      </trkpt>
      <trkpt lat="43.53661" lon="1.12888">
        <ele>258</ele>
        <time>2019-09-29T12:05:39+02:00</time>
      </trkpt>
      <trkpt lat="43.53671" lon="1.12884">
        <ele>257</ele>
        <time>2019-09-29T12:05:47+02:00</time>
      </trkpt>
      <trkpt lat="43.53679" lon="1.12878">
        <ele>256</ele>
        <time>2019-09-29T12:05:54+02:00</time>
      </trkpt>
      <trkpt lat="43.53688" lon="1.12873">
        <ele>255</ele>
        <time>2019-09-29T12:06:02+02:00</time>
      </trkpt>
      <trkpt lat="43.53697" lon="1.12869">
        <ele>254</ele>
        <time>2019-09-29T12:06:10+02:00</time>
      </trkpt>
      <trkpt lat="43.53705" lon="1.12861">
        <ele>253</ele>
        <time>2019-09-29T12:06:18+02:00</time>
      </trkpt>
      <trkpt lat="43.53713" lon="1.12863">
        <ele>253</ele>
        <time>2019-09-29T12:06:26+02:00</time>
      </trkpt>
      <trkpt lat="43.53722" lon="1.1286">
        <ele>252</ele>
        <time>2019-09-29T12:06:43+02:00</time>
      </trkpt>
      <trkpt lat="43.53732" lon="1.12858">
        <ele>251</ele>
        <time>2019-09-29T12:06:50+02:00</time>
      </trkpt>
      <trkpt lat="43.53741" lon="1.12855">
        <ele>251</ele>
        <time>2019-09-29T12:06:58+02:00</time>
      </trkpt>
      <trkpt lat="43.5375" lon="1.12853">
        <ele>250</ele>
        <time>2019-09-29T12:07:06+02:00</time>
      </trkpt>
      <trkpt lat="43.53759" lon="1.12849">
        <ele>249</ele>
        <time>2019-09-29T12:07:13+02:00</time>
      </trkpt>
      <trkpt lat="43.53769" lon="1.12843">
        <ele>249</ele>
        <time>2019-09-29T12:07:22+02:00</time>
      </trkpt>
      <trkpt lat="43.53778" lon="1.12836">
        <ele>248</ele>
        <time>2019-09-29T12:07:30+02:00</time>
      </trkpt>
      <trkpt lat="43.53788" lon="1.12832">
        <ele>247</ele>
        <time>2019-09-29T12:07:38+02:00</time>
      </trkpt>
      <trkpt lat="43.53797" lon="1.12827">
        <ele>246</ele>
        <time>2019-09-29T12:07:46+02:00</time>
      </trkpt>
      <trkpt lat="43.53805" lon="1.12822">
        <ele>245</ele>
        <time>2019-09-29T12:07:53+02:00</time>
      </trkpt>
      <trkpt lat="43.53814" lon="1.12817">
        <ele>245</ele>
        <time>2019-09-29T12:08:01+02:00</time>
      </trkpt>
      <trkpt lat="43.53824" lon="1.12812">
        <ele>244</ele>
        <time>2019-09-29T12:08:10+02:00</time>
      </trkpt>
      <trkpt lat="43.53834" lon="1.12807">
        <ele>244</ele>
        <time>2019-09-29T12:08:19+02:00</time>
      </trkpt>
      <trkpt lat="43.53843" lon="1.12803">
        <ele>244</ele>
        <time>2019-09-29T12:08:26+02:00</time>
      </trkpt>
      <trkpt lat="43.53852" lon="1.128">
        <ele>243</ele>
        <time>2019-09-29T12:08:34+02:00</time>
      </trkpt>
      <trkpt lat="43.53866" lon="1.12806">
        <ele>243</ele>
        <time>2019-09-29T12:08:55+02:00</time>
      </trkpt>
      <trkpt lat="43.5388" lon="1.12814">
        <ele>242</ele>
        <time>2019-09-29T12:09:07+02:00</time>
      </trkpt>
      <trkpt lat="43.53894" lon="1.12821">
        <ele>241</ele>
        <time>2019-09-29T12:09:19+02:00</time>
      </trkpt>
      <trkpt lat="43.53909" lon="1.12813">
        <ele>241</ele>
        <time>2019-09-29T12:09:32+02:00</time>
      </trkpt>
      <trkpt lat="43.53927" lon="1.12804">
        <ele>241</ele>
        <time>2019-09-29T12:09:48+02:00</time>
      </trkpt>
      <trkpt lat="43.53943" lon="1.12798">
        <ele>242</ele>
        <time>2019-09-29T12:10:01+02:00</time>
      </trkpt>
      <trkpt lat="43.53974" lon="1.12784">
        <ele>245</ele>
        <time>2019-09-29T12:10:27+02:00</time>
      </trkpt>
      <trkpt lat="43.53961" lon="1.12714">
        <ele>248</ele>
        <time>2019-09-29T12:11:09+02:00</time>
      </trkpt>
      <trkpt lat="43.54039" lon="1.12679">
        <ele>255</ele>
        <time>2019-09-29T12:12:15+02:00</time>
      </trkpt>
      <trkpt lat="43.54023" lon="1.12617">
        <ele>256</ele>
        <time>2019-09-29T12:12:54+02:00</time>
      </trkpt>
      <trkpt lat="43.54014" lon="1.12583">
        <ele>256</ele>
        <time>2019-09-29T12:13:15+02:00</time>
      </trkpt>
      <trkpt lat="43.54004" lon="1.12546">
        <ele>255</ele>
        <time>2019-09-29T12:13:38+02:00</time>
      </trkpt>
      <trkpt lat="43.53992" lon="1.12508">
        <ele>256</ele>
        <time>2019-09-29T12:14:03+02:00</time>
      </trkpt>
      <trkpt lat="43.53987" lon="1.12497">
        <ele>256</ele>
        <time>2019-09-29T12:14:10+02:00</time>
      </trkpt>
      <trkpt lat="43.53984" lon="1.12484">
        <ele>256</ele>
        <time>2019-09-29T12:14:18+02:00</time>
      </trkpt>
      <trkpt lat="43.53979" lon="1.12472">
        <ele>256</ele>
        <time>2019-09-29T12:14:26+02:00</time>
      </trkpt>
      <trkpt lat="43.53975" lon="1.1246">
        <ele>256</ele>
        <time>2019-09-29T12:14:34+02:00</time>
      </trkpt>
      <trkpt lat="43.53972" lon="1.12447">
        <ele>256</ele>
        <time>2019-09-29T12:14:42+02:00</time>
      </trkpt>
      <trkpt lat="43.53968" lon="1.12435">
        <ele>256</ele>
        <time>2019-09-29T12:14:50+02:00</time>
      </trkpt>
      <trkpt lat="43.53963" lon="1.12424">
        <ele>257</ele>
        <time>2019-09-29T12:14:58+02:00</time>
      </trkpt>
      <trkpt lat="43.53959" lon="1.12412">
        <ele>257</ele>
        <time>2019-09-29T12:15:05+02:00</time>
      </trkpt>
      <trkpt lat="43.53956" lon="1.124">
        <ele>257</ele>
        <time>2019-09-29T12:15:12+02:00</time>
      </trkpt>
      <trkpt lat="43.53952" lon="1.12389">
        <ele>257</ele>
        <time>2019-09-29T12:15:20+02:00</time>
      </trkpt>
      <trkpt lat="43.53948" lon="1.12377">
        <ele>257</ele>
        <time>2019-09-29T12:15:28+02:00</time>
      </trkpt>
      <trkpt lat="43.53944" lon="1.12364">
        <ele>257</ele>
        <time>2019-09-29T12:15:36+02:00</time>
      </trkpt>
      <trkpt lat="43.53941" lon="1.12353">
        <ele>257</ele>
        <time>2019-09-29T12:15:43+02:00</time>
      </trkpt>
      <trkpt lat="43.53938" lon="1.12341">
        <ele>258</ele>
        <time>2019-09-29T12:15:50+02:00</time>
      </trkpt>
      <trkpt lat="43.53933" lon="1.12328">
        <ele>258</ele>
        <time>2019-09-29T12:15:58+02:00</time>
      </trkpt>
      <trkpt lat="43.53931" lon="1.12316">
        <ele>259</ele>
        <time>2019-09-29T12:16:06+02:00</time>
      </trkpt>
      <trkpt lat="43.53929" lon="1.12303">
        <ele>259</ele>
        <time>2019-09-29T12:16:14+02:00</time>
      </trkpt>
      <trkpt lat="43.53924" lon="1.12292">
        <ele>260</ele>
        <time>2019-09-29T12:16:22+02:00</time>
      </trkpt>
      <trkpt lat="43.5392" lon="1.12279">
        <ele>260</ele>
        <time>2019-09-29T12:16:30+02:00</time>
      </trkpt>
      <trkpt lat="43.53916" lon="1.12268">
        <ele>260</ele>
        <time>2019-09-29T12:16:37+02:00</time>
      </trkpt>
      <trkpt lat="43.53913" lon="1.12255">
        <ele>260</ele>
        <time>2019-09-29T12:16:45+02:00</time>
      </trkpt>
      <trkpt lat="43.5391" lon="1.12241">
        <ele>261</ele>
        <time>2019-09-29T12:16:54+02:00</time>
      </trkpt>
      <trkpt lat="43.53906" lon="1.1223">
        <ele>261</ele>
        <time>2019-09-29T12:17:01+02:00</time>
      </trkpt>
      <trkpt lat="43.53903" lon="1.12217">
        <ele>261</ele>
        <time>2019-09-29T12:17:09+02:00</time>
      </trkpt>
      <trkpt lat="43.53896" lon="1.12207">
        <ele>261</ele>
        <time>2019-09-29T12:17:17+02:00</time>
      </trkpt>
      <trkpt lat="43.53893" lon="1.12194">
        <ele>261</ele>
        <time>2019-09-29T12:17:25+02:00</time>
      </trkpt>
      <trkpt lat="43.5389" lon="1.12182">
        <ele>261</ele>
        <time>2019-09-29T12:17:32+02:00</time>
      </trkpt>
      <trkpt lat="43.53886" lon="1.12171">
        <ele>261</ele>
        <time>2019-09-29T12:17:40+02:00</time>
      </trkpt>
      <trkpt lat="43.53881" lon="1.12159">
        <ele>260</ele>
        <time>2019-09-29T12:17:47+02:00</time>
      </trkpt>
      <trkpt lat="43.53877" lon="1.12145">
        <ele>260</ele>
        <time>2019-09-29T12:17:56+02:00</time>
      </trkpt>
      <trkpt lat="43.53873" lon="1.12133">
        <ele>260</ele>
        <time>2019-09-29T12:18:04+02:00</time>
      </trkpt>
      <trkpt lat="43.53868" lon="1.12121">
        <ele>260</ele>
        <time>2019-09-29T12:18:12+02:00</time>
      </trkpt>
      <trkpt lat="43.53864" lon="1.12109">
        <ele>260</ele>
        <time>2019-09-29T12:18:20+02:00</time>
      </trkpt>
      <trkpt lat="43.53861" lon="1.12097">
        <ele>259</ele>
        <time>2019-09-29T12:18:27+02:00</time>
      </trkpt>
      <trkpt lat="43.53857" lon="1.12084">
        <ele>260</ele>
        <time>2019-09-29T12:18:36+02:00</time>
      </trkpt>
      <trkpt lat="43.53854" lon="1.12071">
        <ele>261</ele>
        <time>2019-09-29T12:18:43+02:00</time>
      </trkpt>
      <trkpt lat="43.5385" lon="1.12059">
        <ele>262</ele>
        <time>2019-09-29T12:18:51+02:00</time>
      </trkpt>
      <trkpt lat="43.53849" lon="1.12046">
        <ele>263</ele>
        <time>2019-09-29T12:18:58+02:00</time>
      </trkpt>
      <trkpt lat="43.53843" lon="1.12036">
        <ele>263</ele>
        <time>2019-09-29T12:19:06+02:00</time>
      </trkpt>
      <trkpt lat="43.5384" lon="1.12023">
        <ele>264</ele>
        <time>2019-09-29T12:19:14+02:00</time>
      </trkpt>
      <trkpt lat="43.53836" lon="1.12011">
        <ele>264</ele>
        <time>2019-09-29T12:19:22+02:00</time>
      </trkpt>
      <trkpt lat="43.5383" lon="1.11999">
        <ele>265</ele>
        <time>2019-09-29T12:19:31+02:00</time>
      </trkpt>
      <trkpt lat="43.53826" lon="1.11987">
        <ele>265</ele>
        <time>2019-09-29T12:19:39+02:00</time>
      </trkpt>
      <trkpt lat="43.53822" lon="1.11975">
        <ele>266</ele>
        <time>2019-09-29T12:19:47+02:00</time>
      </trkpt>
      <trkpt lat="43.53813" lon="1.11971">
        <ele>266</ele>
        <time>2019-09-29T12:19:54+02:00</time>
      </trkpt>
      <trkpt lat="43.53804" lon="1.11976">
        <ele>265</ele>
        <time>2019-09-29T12:20:02+02:00</time>
      </trkpt>
      <trkpt lat="43.53795" lon="1.11978">
        <ele>263</ele>
        <time>2019-09-29T12:20:09+02:00</time>
      </trkpt>
      <trkpt lat="43.53785" lon="1.11976">
        <ele>262</ele>
        <time>2019-09-29T12:20:17+02:00</time>
      </trkpt>
      <trkpt lat="43.53775" lon="1.11972">
        <ele>262</ele>
        <time>2019-09-29T12:20:26+02:00</time>
      </trkpt>
      <trkpt lat="43.53766" lon="1.1197">
        <ele>261</ele>
        <time>2019-09-29T12:20:34+02:00</time>
      </trkpt>
      <trkpt lat="43.53756" lon="1.11965">
        <ele>260</ele>
        <time>2019-09-29T12:20:43+02:00</time>
      </trkpt>
      <trkpt lat="43.53747" lon="1.11962">
        <ele>259</ele>
        <time>2019-09-29T12:20:50+02:00</time>
      </trkpt>
      <trkpt lat="43.53742" lon="1.11952">
        <ele>259</ele>
        <time>2019-09-29T12:20:57+02:00</time>
      </trkpt>
      <trkpt lat="43.53735" lon="1.11941">
        <ele>259</ele>
        <time>2019-09-29T12:21:06+02:00</time>
      </trkpt>
      <trkpt lat="43.53731" lon="1.1193">
        <ele>259</ele>
        <time>2019-09-29T12:21:13+02:00</time>
      </trkpt>
      <trkpt lat="43.53728" lon="1.11917">
        <ele>260</ele>
        <time>2019-09-29T12:21:21+02:00</time>
      </trkpt>
      <trkpt lat="43.53723" lon="1.11905">
        <ele>259</ele>
        <time>2019-09-29T12:21:29+02:00</time>
      </trkpt>
      <trkpt lat="43.53716" lon="1.11897">
        <ele>259</ele>
        <time>2019-09-29T12:21:36+02:00</time>
      </trkpt>
      <trkpt lat="43.53712" lon="1.11885">
        <ele>259</ele>
        <time>2019-09-29T12:21:44+02:00</time>
      </trkpt>
      <trkpt lat="43.53708" lon="1.11873">
        <ele>260</ele>
        <time>2019-09-29T12:21:52+02:00</time>
      </trkpt>
      <trkpt lat="43.53707" lon="1.11861">
        <ele>260</ele>
        <time>2019-09-29T12:21:59+02:00</time>
      </trkpt>
      <trkpt lat="43.53704" lon="1.11848">
        <ele>260</ele>
        <time>2019-09-29T12:22:07+02:00</time>
      </trkpt>
      <trkpt lat="43.53699" lon="1.11837">
        <ele>260</ele>
        <time>2019-09-29T12:22:14+02:00</time>
      </trkpt>
      <trkpt lat="43.53699" lon="1.11824">
        <ele>261</ele>
        <time>2019-09-29T12:22:22+02:00</time>
      </trkpt>
      <trkpt lat="43.53696" lon="1.1181">
        <ele>262</ele>
        <time>2019-09-29T12:22:30+02:00</time>
      </trkpt>
      <trkpt lat="43.53693" lon="1.11798">
        <ele>262</ele>
        <time>2019-09-29T12:22:38+02:00</time>
      </trkpt>
      <trkpt lat="43.53692" lon="1.11785">
        <ele>262</ele>
        <time>2019-09-29T12:22:45+02:00</time>
      </trkpt>
      <trkpt lat="43.53687" lon="1.11772">
        <ele>261</ele>
        <time>2019-09-29T12:22:53+02:00</time>
      </trkpt>
      <trkpt lat="43.53684" lon="1.11761">
        <ele>261</ele>
        <time>2019-09-29T12:23:01+02:00</time>
      </trkpt>
      <trkpt lat="43.53681" lon="1.11748">
        <ele>260</ele>
        <time>2019-09-29T12:23:09+02:00</time>
      </trkpt>
      <trkpt lat="43.53676" lon="1.11736">
        <ele>260</ele>
        <time>2019-09-29T12:23:17+02:00</time>
      </trkpt>
      <trkpt lat="43.53673" lon="1.11723">
        <ele>259</ele>
        <time>2019-09-29T12:23:24+02:00</time>
      </trkpt>
      <trkpt lat="43.53669" lon="1.1171">
        <ele>258</ele>
        <time>2019-09-29T12:23:33+02:00</time>
      </trkpt>
      <trkpt lat="43.53665" lon="1.11697">
        <ele>257</ele>
        <time>2019-09-29T12:23:41+02:00</time>
      </trkpt>
      <trkpt lat="43.53663" lon="1.11685">
        <ele>257</ele>
        <time>2019-09-29T12:23:49+02:00</time>
      </trkpt>
      <trkpt lat="43.53659" lon="1.11673">
        <ele>256</ele>
        <time>2019-09-29T12:23:56+02:00</time>
      </trkpt>
      <trkpt lat="43.53654" lon="1.11663">
        <ele>256</ele>
        <time>2019-09-29T12:24:03+02:00</time>
      </trkpt>
      <trkpt lat="43.53651" lon="1.1165">
        <ele>256</ele>
        <time>2019-09-29T12:24:11+02:00</time>
      </trkpt>
      <trkpt lat="43.53648" lon="1.11637">
        <ele>255</ele>
        <time>2019-09-29T12:24:19+02:00</time>
      </trkpt>
      <trkpt lat="43.53643" lon="1.11625">
        <ele>255</ele>
        <time>2019-09-29T12:24:27+02:00</time>
      </trkpt>
      <trkpt lat="43.53637" lon="1.11614">
        <ele>255</ele>
        <time>2019-09-29T12:24:35+02:00</time>
      </trkpt>
      <trkpt lat="43.53628" lon="1.11607">
        <ele>255</ele>
        <time>2019-09-29T12:24:44+02:00</time>
      </trkpt>
      <trkpt lat="43.53622" lon="1.11596">
        <ele>254</ele>
        <time>2019-09-29T12:24:52+02:00</time>
      </trkpt>
      <trkpt lat="43.53621" lon="1.11583">
        <ele>254</ele>
        <time>2019-09-29T12:24:59+02:00</time>
      </trkpt>
      <trkpt lat="43.53624" lon="1.11571">
        <ele>254</ele>
        <time>2019-09-29T12:25:07+02:00</time>
      </trkpt>
      <trkpt lat="43.53624" lon="1.11558">
        <ele>254</ele>
        <time>2019-09-29T12:25:15+02:00</time>
      </trkpt>
      <trkpt lat="43.53631" lon="1.11548">
        <ele>255</ele>
        <time>2019-09-29T12:25:23+02:00</time>
      </trkpt>
      <trkpt lat="43.53634" lon="1.11536">
        <ele>255</ele>
        <time>2019-09-29T12:25:30+02:00</time>
      </trkpt>
      <trkpt lat="43.53635" lon="1.11523">
        <ele>255</ele>
        <time>2019-09-29T12:25:38+02:00</time>
      </trkpt>
      <trkpt lat="43.53632" lon="1.1151">
        <ele>255</ele>
        <time>2019-09-29T12:25:46+02:00</time>
      </trkpt>
      <trkpt lat="43.53631" lon="1.11497">
        <ele>256</ele>
        <time>2019-09-29T12:25:53+02:00</time>
      </trkpt>
      <trkpt lat="43.53634" lon="1.11486">
        <ele>256</ele>
        <time>2019-09-29T12:26:00+02:00</time>
      </trkpt>
      <trkpt lat="43.53632" lon="1.11472">
        <ele>257</ele>
        <time>2019-09-29T12:26:09+02:00</time>
      </trkpt>
      <trkpt lat="43.5363" lon="1.11458">
        <ele>258</ele>
        <time>2019-09-29T12:26:17+02:00</time>
      </trkpt>
      <trkpt lat="43.53626" lon="1.11447">
        <ele>259</ele>
        <time>2019-09-29T12:26:24+02:00</time>
      </trkpt>
      <trkpt lat="43.53623" lon="1.11434">
        <ele>260</ele>
        <time>2019-09-29T12:26:32+02:00</time>
      </trkpt>
      <trkpt lat="43.53629" lon="1.11424">
        <ele>260</ele>
        <time>2019-09-29T12:26:40+02:00</time>
      </trkpt>
      <trkpt lat="43.53634" lon="1.11412">
        <ele>261</ele>
        <time>2019-09-29T12:26:48+02:00</time>
      </trkpt>
      <trkpt lat="43.5364" lon="1.11401">
        <ele>263</ele>
        <time>2019-09-29T12:26:56+02:00</time>
      </trkpt>
      <trkpt lat="43.53647" lon="1.11391">
        <ele>263</ele>
        <time>2019-09-29T12:27:04+02:00</time>
      </trkpt>
      <trkpt lat="43.53655" lon="1.11383">
        <ele>264</ele>
        <time>2019-09-29T12:27:12+02:00</time>
      </trkpt>
      <trkpt lat="43.53662" lon="1.11374">
        <ele>264</ele>
        <time>2019-09-29T12:27:20+02:00</time>
      </trkpt>
      <trkpt lat="43.53667" lon="1.11364">
        <ele>265</ele>
        <time>2019-09-29T12:27:28+02:00</time>
      </trkpt>
      <trkpt lat="43.53674" lon="1.11355">
        <ele>265</ele>
        <time>2019-09-29T12:27:35+02:00</time>
      </trkpt>
      <trkpt lat="43.53682" lon="1.11346">
        <ele>266</ele>
        <time>2019-09-29T12:27:44+02:00</time>
      </trkpt>
      <trkpt lat="43.53689" lon="1.11336">
        <ele>266</ele>
        <time>2019-09-29T12:27:52+02:00</time>
      </trkpt>
      <trkpt lat="43.53697" lon="1.11326">
        <ele>267</ele>
        <time>2019-09-29T12:28:01+02:00</time>
      </trkpt>
      <trkpt lat="43.53704" lon="1.11317">
        <ele>267</ele>
        <time>2019-09-29T12:28:09+02:00</time>
      </trkpt>
      <trkpt lat="43.5371" lon="1.11306">
        <ele>267</ele>
        <time>2019-09-29T12:28:16+02:00</time>
      </trkpt>
      <trkpt lat="43.53717" lon="1.11296">
        <ele>266</ele>
        <time>2019-09-29T12:28:24+02:00</time>
      </trkpt>
      <trkpt lat="43.53721" lon="1.11285">
        <ele>267</ele>
        <time>2019-09-29T12:28:32+02:00</time>
      </trkpt>
      <trkpt lat="43.53726" lon="1.11274">
        <ele>267</ele>
        <time>2019-09-29T12:28:39+02:00</time>
      </trkpt>
      <trkpt lat="43.53727" lon="1.11261">
        <ele>269</ele>
        <time>2019-09-29T12:28:47+02:00</time>
      </trkpt>
      <trkpt lat="43.53723" lon="1.11249">
        <ele>270</ele>
        <time>2019-09-29T12:28:55+02:00</time>
      </trkpt>
      <trkpt lat="43.53727" lon="1.11236">
        <ele>271</ele>
        <time>2019-09-29T12:29:03+02:00</time>
      </trkpt>
      <trkpt lat="43.53729" lon="1.11224">
        <ele>271</ele>
        <time>2019-09-29T12:29:10+02:00</time>
      </trkpt>
      <trkpt lat="43.53733" lon="1.11212">
        <ele>271</ele>
        <time>2019-09-29T12:29:18+02:00</time>
      </trkpt>
      <trkpt lat="43.53735" lon="1.11199">
        <ele>272</ele>
        <time>2019-09-29T12:29:25+02:00</time>
      </trkpt>
      <trkpt lat="43.5374" lon="1.11187">
        <ele>272</ele>
        <time>2019-09-29T12:29:33+02:00</time>
      </trkpt>
      <trkpt lat="43.53748" lon="1.11181">
        <ele>271</ele>
        <time>2019-09-29T12:29:41+02:00</time>
      </trkpt>
      <trkpt lat="43.53758" lon="1.11178">
        <ele>271</ele>
        <time>2019-09-29T12:29:49+02:00</time>
      </trkpt>
      <trkpt lat="43.53763" lon="1.11188">
        <ele>271</ele>
        <time>2019-09-29T12:29:56+02:00</time>
      </trkpt>
      <trkpt lat="43.53769" lon="1.11198">
        <ele>271</ele>
        <time>2019-09-29T12:30:04+02:00</time>
      </trkpt>
      <trkpt lat="43.53778" lon="1.112">
        <ele>271</ele>
        <time>2019-09-29T12:30:11+02:00</time>
      </trkpt>
      <trkpt lat="43.53787" lon="1.11205">
        <ele>271</ele>
        <time>2019-09-29T12:30:19+02:00</time>
      </trkpt>
      <trkpt lat="43.53796" lon="1.1121">
        <ele>272</ele>
        <time>2019-09-29T12:30:27+02:00</time>
      </trkpt>
      <trkpt lat="43.53799" lon="1.11222">
        <ele>271</ele>
        <time>2019-09-29T12:30:34+02:00</time>
      </trkpt>
      <trkpt lat="43.53805" lon="1.11233">
        <ele>271</ele>
        <time>2019-09-29T12:30:42+02:00</time>
      </trkpt>
      <trkpt lat="43.53814" lon="1.11236">
        <ele>273</ele>
        <time>2019-09-29T12:30:50+02:00</time>
      </trkpt>
      <trkpt lat="43.53823" lon="1.11232">
        <ele>274</ele>
        <time>2019-09-29T12:30:57+02:00</time>
      </trkpt>
      <trkpt lat="43.53832" lon="1.1123">
        <ele>275</ele>
        <time>2019-09-29T12:31:04+02:00</time>
      </trkpt>
      <trkpt lat="43.5384" lon="1.11222">
        <ele>276</ele>
        <time>2019-09-29T12:31:12+02:00</time>
      </trkpt>
      <trkpt lat="43.5385" lon="1.11218">
        <ele>277</ele>
        <time>2019-09-29T12:31:20+02:00</time>
      </trkpt>
      <trkpt lat="43.53859" lon="1.11215">
        <ele>278</ele>
        <time>2019-09-29T12:31:28+02:00</time>
      </trkpt>
      <trkpt lat="43.53866" lon="1.11208">
        <ele>279</ele>
        <time>2019-09-29T12:31:35+02:00</time>
      </trkpt>
      <trkpt lat="43.53875" lon="1.11203">
        <ele>279</ele>
        <time>2019-09-29T12:31:43+02:00</time>
      </trkpt>
      <trkpt lat="43.53884" lon="1.11207">
        <ele>280</ele>
        <time>2019-09-29T12:31:51+02:00</time>
      </trkpt>
      <trkpt lat="43.53893" lon="1.11212">
        <ele>282</ele>
        <time>2019-09-29T12:31:58+02:00</time>
      </trkpt>
      <trkpt lat="43.53903" lon="1.11217">
        <ele>284</ele>
        <time>2019-09-29T12:32:07+02:00</time>
      </trkpt>
      <trkpt lat="43.53912" lon="1.11218">
        <ele>286</ele>
        <time>2019-09-29T12:32:14+02:00</time>
      </trkpt>
      <trkpt lat="43.53921" lon="1.11214">
        <ele>287</ele>
        <time>2019-09-29T12:32:22+02:00</time>
      </trkpt>
      <trkpt lat="43.53931" lon="1.11212">
        <ele>289</ele>
        <time>2019-09-29T12:32:30+02:00</time>
      </trkpt>
      <trkpt lat="43.53939" lon="1.11204">
        <ele>290</ele>
        <time>2019-09-29T12:32:38+02:00</time>
      </trkpt>
      <trkpt lat="43.53945" lon="1.11194">
        <ele>291</ele>
        <time>2019-09-29T12:32:45+02:00</time>
      </trkpt>
      <trkpt lat="43.53946" lon="1.11181">
        <ele>290</ele>
        <time>2019-09-29T12:32:53+02:00</time>
      </trkpt>
      <trkpt lat="43.53953" lon="1.11171">
        <ele>291</ele>
        <time>2019-09-29T12:33:01+02:00</time>
      </trkpt>
      <trkpt lat="43.53959" lon="1.11161">
        <ele>291</ele>
        <time>2019-09-29T12:33:09+02:00</time>
      </trkpt>
      <trkpt lat="43.53961" lon="1.11149">
        <ele>291</ele>
        <time>2019-09-29T12:33:16+02:00</time>
      </trkpt>
      <trkpt lat="43.53964" lon="1.11137">
        <ele>292</ele>
        <time>2019-09-29T12:33:24+02:00</time>
      </trkpt>
      <trkpt lat="43.53967" lon="1.11125">
        <ele>292</ele>
        <time>2019-09-29T12:33:31+02:00</time>
      </trkpt>
      <trkpt lat="43.53973" lon="1.11115">
        <ele>292</ele>
        <time>2019-09-29T12:33:39+02:00</time>
      </trkpt>
      <trkpt lat="43.53981" lon="1.11106">
        <ele>293</ele>
        <time>2019-09-29T12:33:47+02:00</time>
      </trkpt>
      <trkpt lat="43.53991" lon="1.11106">
        <ele>295</ele>
        <time>2019-09-29T12:33:55+02:00</time>
      </trkpt>
      <trkpt lat="43.54" lon="1.11108">
        <ele>296</ele>
        <time>2019-09-29T12:34:03+02:00</time>
      </trkpt>
      <trkpt lat="43.54008" lon="1.11115">
        <ele>297</ele>
        <time>2019-09-29T12:34:10+02:00</time>
      </trkpt>
      <trkpt lat="43.54016" lon="1.11124">
        <ele>299</ele>
        <time>2019-09-29T12:34:19+02:00</time>
      </trkpt>
      <trkpt lat="43.54025" lon="1.1113">
        <ele>300</ele>
        <time>2019-09-29T12:34:27+02:00</time>
      </trkpt>
      <trkpt lat="43.54033" lon="1.11124">
        <ele>300</ele>
        <time>2019-09-29T12:34:34+02:00</time>
      </trkpt>
      <trkpt lat="43.54037" lon="1.11111">
        <ele>301</ele>
        <time>2019-09-29T12:34:42+02:00</time>
      </trkpt>
      <trkpt lat="43.5404" lon="1.111">
        <ele>301</ele>
        <time>2019-09-29T12:34:50+02:00</time>
      </trkpt>
      <trkpt lat="43.54043" lon="1.11087">
        <ele>302</ele>
        <time>2019-09-29T12:34:57+02:00</time>
      </trkpt>
      <trkpt lat="43.54045" lon="1.11075">
        <ele>302</ele>
        <time>2019-09-29T12:35:04+02:00</time>
      </trkpt>
      <trkpt lat="43.54048" lon="1.11063">
        <ele>303</ele>
        <time>2019-09-29T12:35:12+02:00</time>
      </trkpt>
      <trkpt lat="43.5405" lon="1.1105">
        <ele>303</ele>
        <time>2019-09-29T12:35:20+02:00</time>
      </trkpt>
      <trkpt lat="43.54048" lon="1.11037">
        <ele>303</ele>
        <time>2019-09-29T12:35:27+02:00</time>
      </trkpt>
      <trkpt lat="43.54049" lon="1.11024">
        <ele>303</ele>
        <time>2019-09-29T12:35:35+02:00</time>
      </trkpt>
      <trkpt lat="43.54051" lon="1.11011">
        <ele>304</ele>
        <time>2019-09-29T12:35:43+02:00</time>
      </trkpt>
      <trkpt lat="43.54048" lon="1.10998">
        <ele>304</ele>
        <time>2019-09-29T12:35:51+02:00</time>
      </trkpt>
      <trkpt lat="43.54045" lon="1.10985">
        <ele>304</ele>
        <time>2019-09-29T12:35:58+02:00</time>
      </trkpt>
      <trkpt lat="43.54044" lon="1.10972">
        <ele>304</ele>
        <time>2019-09-29T12:36:06+02:00</time>
      </trkpt>
      <trkpt lat="43.54043" lon="1.10959">
        <ele>304</ele>
        <time>2019-09-29T12:36:14+02:00</time>
      </trkpt>
      <trkpt lat="43.5404" lon="1.10946">
        <ele>304</ele>
        <time>2019-09-29T12:36:22+02:00</time>
      </trkpt>
      <trkpt lat="43.54036" lon="1.10934">
        <ele>305</ele>
        <time>2019-09-29T12:36:30+02:00</time>
      </trkpt>
      <trkpt lat="43.54032" lon="1.10922">
        <ele>305</ele>
        <time>2019-09-29T12:36:37+02:00</time>
      </trkpt>
      <trkpt lat="43.54029" lon="1.10909">
        <ele>305</ele>
        <time>2019-09-29T12:36:45+02:00</time>
      </trkpt>
      <trkpt lat="43.54023" lon="1.109">
        <ele>305</ele>
        <time>2019-09-29T12:36:53+02:00</time>
      </trkpt>
      <trkpt lat="43.54018" lon="1.10889">
        <ele>305</ele>
        <time>2019-09-29T12:37:00+02:00</time>
      </trkpt>
      <trkpt lat="43.54012" lon="1.10878">
        <ele>305</ele>
        <time>2019-09-29T12:37:08+02:00</time>
      </trkpt>
      <trkpt lat="43.54007" lon="1.10866">
        <ele>305</ele>
        <time>2019-09-29T12:37:16+02:00</time>
      </trkpt>
      <trkpt lat="43.54001" lon="1.10855">
        <ele>305</ele>
        <time>2019-09-29T12:37:24+02:00</time>
      </trkpt>
      <trkpt lat="43.53991" lon="1.10852">
        <ele>305</ele>
        <time>2019-09-29T12:37:32+02:00</time>
      </trkpt>
      <trkpt lat="43.53986" lon="1.1084">
        <ele>305</ele>
        <time>2019-09-29T12:37:41+02:00</time>
      </trkpt>
      <trkpt lat="43.53978" lon="1.10832">
        <ele>305</ele>
        <time>2019-09-29T12:37:49+02:00</time>
      </trkpt>
      <trkpt lat="43.53972" lon="1.10821">
        <ele>305</ele>
        <time>2019-09-29T12:37:56+02:00</time>
      </trkpt>
      <trkpt lat="43.53965" lon="1.10812">
        <ele>305</ele>
        <time>2019-09-29T12:38:04+02:00</time>
      </trkpt>
      <trkpt lat="43.53958" lon="1.10802">
        <ele>305</ele>
        <time>2019-09-29T12:38:12+02:00</time>
      </trkpt>
      <trkpt lat="43.53953" lon="1.1079">
        <ele>305</ele>
        <time>2019-09-29T12:38:20+02:00</time>
      </trkpt>
      <trkpt lat="43.53945" lon="1.10783">
        <ele>305</ele>
        <time>2019-09-29T12:38:28+02:00</time>
      </trkpt>
      <trkpt lat="43.53937" lon="1.10775">
        <ele>305</ele>
        <time>2019-09-29T12:38:36+02:00</time>
      </trkpt>
      <trkpt lat="43.53929" lon="1.10769">
        <ele>305</ele>
        <time>2019-09-29T12:38:43+02:00</time>
      </trkpt>
      <trkpt lat="43.5392" lon="1.10762">
        <ele>305</ele>
        <time>2019-09-29T12:38:51+02:00</time>
      </trkpt>
      <trkpt lat="43.53913" lon="1.10752">
        <ele>305</ele>
        <time>2019-09-29T12:38:59+02:00</time>
      </trkpt>
      <trkpt lat="43.53907" lon="1.10742">
        <ele>305</ele>
        <time>2019-09-29T12:39:07+02:00</time>
      </trkpt>
      <trkpt lat="43.539" lon="1.10734">
        <ele>305</ele>
        <time>2019-09-29T12:39:15+02:00</time>
      </trkpt>
      <trkpt lat="43.53893" lon="1.10726">
        <ele>305</ele>
        <time>2019-09-29T12:39:22+02:00</time>
      </trkpt>
      <trkpt lat="43.53884" lon="1.10718">
        <ele>305</ele>
        <time>2019-09-29T12:39:30+02:00</time>
      </trkpt>
      <trkpt lat="43.53875" lon="1.10713">
        <ele>305</ele>
        <time>2019-09-29T12:39:38+02:00</time>
      </trkpt>
      <trkpt lat="43.53867" lon="1.10706">
        <ele>305</ele>
        <time>2019-09-29T12:39:46+02:00</time>
      </trkpt>
      <trkpt lat="43.53859" lon="1.10699">
        <ele>305</ele>
        <time>2019-09-29T12:39:54+02:00</time>
      </trkpt>
      <trkpt lat="43.53851" lon="1.10691">
        <ele>305</ele>
        <time>2019-09-29T12:40:01+02:00</time>
      </trkpt>
      <trkpt lat="43.53843" lon="1.10686">
        <ele>305</ele>
        <time>2019-09-29T12:40:09+02:00</time>
      </trkpt>
      <trkpt lat="43.53834" lon="1.10679">
        <ele>305</ele>
        <time>2019-09-29T12:40:17+02:00</time>
      </trkpt>
      <trkpt lat="43.53824" lon="1.10674">
        <ele>305</ele>
        <time>2019-09-29T12:40:26+02:00</time>
      </trkpt>
      <trkpt lat="43.53815" lon="1.10669">
        <ele>306</ele>
        <time>2019-09-29T12:40:33+02:00</time>
      </trkpt>
      <trkpt lat="43.53806" lon="1.10664">
        <ele>306</ele>
        <time>2019-09-29T12:40:41+02:00</time>
      </trkpt>
      <trkpt lat="43.53797" lon="1.10657">
        <ele>307</ele>
        <time>2019-09-29T12:40:49+02:00</time>
      </trkpt>
      <trkpt lat="43.53788" lon="1.1065">
        <ele>307</ele>
        <time>2019-09-29T12:40:57+02:00</time>
      </trkpt>
      <trkpt lat="43.53781" lon="1.10642">
        <ele>307</ele>
        <time>2019-09-29T12:41:05+02:00</time>
      </trkpt>
      <trkpt lat="43.53772" lon="1.10636">
        <ele>307</ele>
        <time>2019-09-29T12:41:13+02:00</time>
      </trkpt>
      <trkpt lat="43.53761" lon="1.10628">
        <ele>308</ele>
        <time>2019-09-29T12:41:23+02:00</time>
      </trkpt>
      <trkpt lat="43.53754" lon="1.10621">
        <ele>308</ele>
        <time>2019-09-29T12:41:30+02:00</time>
      </trkpt>
      <trkpt lat="43.53746" lon="1.10613">
        <ele>308</ele>
        <time>2019-09-29T12:41:38+02:00</time>
      </trkpt>
      <trkpt lat="43.53738" lon="1.10603">
        <ele>308</ele>
        <time>2019-09-29T12:41:47+02:00</time>
      </trkpt>
      <trkpt lat="43.53729" lon="1.10596">
        <ele>308</ele>
        <time>2019-09-29T12:41:55+02:00</time>
      </trkpt>
      <trkpt lat="43.5372" lon="1.1059">
        <ele>309</ele>
        <time>2019-09-29T12:42:03+02:00</time>
      </trkpt>
      <trkpt lat="43.53711" lon="1.10585">
        <ele>308</ele>
        <time>2019-09-29T12:42:11+02:00</time>
      </trkpt>
      <trkpt lat="43.53702" lon="1.10578">
        <ele>309</ele>
        <time>2019-09-29T12:42:19+02:00</time>
      </trkpt>
      <trkpt lat="43.53694" lon="1.1057">
        <ele>309</ele>
        <time>2019-09-29T12:42:27+02:00</time>
      </trkpt>
      <trkpt lat="43.53685" lon="1.10563">
        <ele>309</ele>
        <time>2019-09-29T12:42:35+02:00</time>
      </trkpt>
      <trkpt lat="43.53677" lon="1.10555">
        <ele>309</ele>
        <time>2019-09-29T12:42:43+02:00</time>
      </trkpt>
      <trkpt lat="43.53668" lon="1.10548">
        <ele>309</ele>
        <time>2019-09-29T12:42:51+02:00</time>
      </trkpt>
      <trkpt lat="43.53659" lon="1.10541">
        <ele>308</ele>
        <time>2019-09-29T12:43:00+02:00</time>
      </trkpt>
      <trkpt lat="43.53651" lon="1.10533">
        <ele>308</ele>
        <time>2019-09-29T12:43:08+02:00</time>
      </trkpt>
      <trkpt lat="43.53643" lon="1.10524">
        <ele>308</ele>
        <time>2019-09-29T12:43:16+02:00</time>
      </trkpt>
      <trkpt lat="43.53635" lon="1.10518">
        <ele>307</ele>
        <time>2019-09-29T12:43:24+02:00</time>
      </trkpt>
      <trkpt lat="43.53626" lon="1.10513">
        <ele>306</ele>
        <time>2019-09-29T12:43:31+02:00</time>
      </trkpt>
      <trkpt lat="43.53617" lon="1.10507">
        <ele>306</ele>
        <time>2019-09-29T12:43:39+02:00</time>
      </trkpt>
      <trkpt lat="43.53609" lon="1.105">
        <ele>306</ele>
        <time>2019-09-29T12:43:47+02:00</time>
      </trkpt>
      <trkpt lat="43.536" lon="1.10495">
        <ele>305</ele>
        <time>2019-09-29T12:43:55+02:00</time>
      </trkpt>
      <trkpt lat="43.53593" lon="1.10486">
        <ele>305</ele>
        <time>2019-09-29T12:44:02+02:00</time>
      </trkpt>
      <trkpt lat="43.53585" lon="1.10479">
        <ele>305</ele>
        <time>2019-09-29T12:44:10+02:00</time>
      </trkpt>
      <trkpt lat="43.53578" lon="1.10473">
        <ele>305</ele>
        <time>2019-09-29T12:44:17+02:00</time>
      </trkpt>
      <trkpt lat="43.53569" lon="1.10466">
        <ele>305</ele>
        <time>2019-09-29T12:44:25+02:00</time>
      </trkpt>
      <trkpt lat="43.53562" lon="1.10458">
        <ele>305</ele>
        <time>2019-09-29T12:44:33+02:00</time>
      </trkpt>
      <trkpt lat="43.53555" lon="1.10449">
        <ele>305</ele>
        <time>2019-09-29T12:44:40+02:00</time>
      </trkpt>
      <trkpt lat="43.53547" lon="1.10441">
        <ele>305</ele>
        <time>2019-09-29T12:44:48+02:00</time>
      </trkpt>
      <trkpt lat="43.5354" lon="1.10431">
        <ele>305</ele>
        <time>2019-09-29T12:44:56+02:00</time>
      </trkpt>
      <trkpt lat="43.53533" lon="1.10423">
        <ele>305</ele>
        <time>2019-09-29T12:45:03+02:00</time>
      </trkpt>
      <trkpt lat="43.53527" lon="1.10413">
        <ele>305</ele>
        <time>2019-09-29T12:45:11+02:00</time>
      </trkpt>
      <trkpt lat="43.5352" lon="1.10402">
        <ele>305</ele>
        <time>2019-09-29T12:45:19+02:00</time>
      </trkpt>
      <trkpt lat="43.53514" lon="1.10391">
        <ele>305</ele>
        <time>2019-09-29T12:45:27+02:00</time>
      </trkpt>
      <trkpt lat="43.53509" lon="1.10381">
        <ele>305</ele>
        <time>2019-09-29T12:45:35+02:00</time>
      </trkpt>
      <trkpt lat="43.53503" lon="1.1037">
        <ele>305</ele>
        <time>2019-09-29T12:45:42+02:00</time>
      </trkpt>
      <trkpt lat="43.53497" lon="1.10361">
        <ele>305</ele>
        <time>2019-09-29T12:45:50+02:00</time>
      </trkpt>
      <trkpt lat="43.53491" lon="1.1035">
        <ele>305</ele>
        <time>2019-09-29T12:45:57+02:00</time>
      </trkpt>
      <trkpt lat="43.53486" lon="1.10339">
        <ele>305</ele>
        <time>2019-09-29T12:46:05+02:00</time>
      </trkpt>
      <trkpt lat="43.5348" lon="1.10328">
        <ele>306</ele>
        <time>2019-09-29T12:46:13+02:00</time>
      </trkpt>
      <trkpt lat="43.53476" lon="1.10315">
        <ele>306</ele>
        <time>2019-09-29T12:46:21+02:00</time>
      </trkpt>
      <trkpt lat="43.53471" lon="1.10302">
        <ele>307</ele>
        <time>2019-09-29T12:46:30+02:00</time>
      </trkpt>
      <trkpt lat="43.53466" lon="1.10291">
        <ele>308</ele>
        <time>2019-09-29T12:46:37+02:00</time>
      </trkpt>
      <trkpt lat="43.53461" lon="1.10279">
        <ele>308</ele>
        <time>2019-09-29T12:46:45+02:00</time>
      </trkpt>
      <trkpt lat="43.53457" lon="1.10269">
        <ele>309</ele>
        <time>2019-09-29T12:46:53+02:00</time>
      </trkpt>
      <trkpt lat="43.53451" lon="1.10258">
        <ele>309</ele>
        <time>2019-09-29T12:47:00+02:00</time>
      </trkpt>
      <trkpt lat="43.53443" lon="1.10264">
        <ele>309</ele>
        <time>2019-09-29T12:47:08+02:00</time>
      </trkpt>
      <trkpt lat="43.53437" lon="1.10274">
        <ele>309</ele>
        <time>2019-09-29T12:47:16+02:00</time>
      </trkpt>
      <trkpt lat="43.5343" lon="1.10285">
        <ele>308</ele>
        <time>2019-09-29T12:47:24+02:00</time>
      </trkpt>
      <trkpt lat="43.53422" lon="1.10292">
        <ele>308</ele>
        <time>2019-09-29T12:47:31+02:00</time>
      </trkpt>
      <trkpt lat="43.53413" lon="1.10299">
        <ele>307</ele>
        <time>2019-09-29T12:47:40+02:00</time>
      </trkpt>
      <trkpt lat="43.53403" lon="1.10303">
        <ele>306</ele>
        <time>2019-09-29T12:47:48+02:00</time>
      </trkpt>
      <trkpt lat="43.53394" lon="1.10303">
        <ele>305</ele>
        <time>2019-09-29T12:47:55+02:00</time>
      </trkpt>
      <trkpt lat="43.53387" lon="1.10311">
        <ele>305</ele>
        <time>2019-09-29T12:48:03+02:00</time>
      </trkpt>
      <trkpt lat="43.53379" lon="1.10318">
        <ele>303</ele>
        <time>2019-09-29T12:48:11+02:00</time>
      </trkpt>
      <trkpt lat="43.53371" lon="1.10325">
        <ele>302</ele>
        <time>2019-09-29T12:48:19+02:00</time>
      </trkpt>
      <trkpt lat="43.53363" lon="1.10331">
        <ele>301</ele>
        <time>2019-09-29T12:48:26+02:00</time>
      </trkpt>
      <trkpt lat="43.53353" lon="1.10336">
        <ele>300</ele>
        <time>2019-09-29T12:48:34+02:00</time>
      </trkpt>
      <trkpt lat="43.53344" lon="1.10342">
        <ele>299</ele>
        <time>2019-09-29T12:48:42+02:00</time>
      </trkpt>
      <trkpt lat="43.53336" lon="1.10348">
        <ele>298</ele>
        <time>2019-09-29T12:48:50+02:00</time>
      </trkpt>
      <trkpt lat="43.53328" lon="1.10355">
        <ele>296</ele>
        <time>2019-09-29T12:48:58+02:00</time>
      </trkpt>
      <trkpt lat="43.5332" lon="1.10362">
        <ele>295</ele>
        <time>2019-09-29T12:49:05+02:00</time>
      </trkpt>
      <trkpt lat="43.53311" lon="1.10366">
        <ele>294</ele>
        <time>2019-09-29T12:49:13+02:00</time>
      </trkpt>
      <trkpt lat="43.53303" lon="1.10371">
        <ele>293</ele>
        <time>2019-09-29T12:49:20+02:00</time>
      </trkpt>
      <trkpt lat="43.53297" lon="1.10381">
        <ele>292</ele>
        <time>2019-09-29T12:49:28+02:00</time>
      </trkpt>
      <trkpt lat="43.53291" lon="1.1039">
        <ele>291</ele>
        <time>2019-09-29T12:49:35+02:00</time>
      </trkpt>
      <trkpt lat="43.53283" lon="1.10398">
        <ele>290</ele>
        <time>2019-09-29T12:49:43+02:00</time>
      </trkpt>
      <trkpt lat="43.53276" lon="1.10406">
        <ele>289</ele>
        <time>2019-09-29T12:49:50+02:00</time>
      </trkpt>
      <trkpt lat="43.53267" lon="1.10411">
        <ele>288</ele>
        <time>2019-09-29T12:49:58+02:00</time>
      </trkpt>
      <trkpt lat="43.53262" lon="1.10422">
        <ele>286</ele>
        <time>2019-09-29T12:50:06+02:00</time>
      </trkpt>
      <trkpt lat="43.53265" lon="1.10436">
        <ele>286</ele>
        <time>2019-09-29T12:50:14+02:00</time>
      </trkpt>
      <trkpt lat="43.53265" lon="1.10449">
        <ele>285</ele>
        <time>2019-09-29T12:50:22+02:00</time>
      </trkpt>
      <trkpt lat="43.53265" lon="1.10462">
        <ele>285</ele>
        <time>2019-09-29T12:50:30+02:00</time>
      </trkpt>
      <trkpt lat="43.53269" lon="1.10475">
        <ele>285</ele>
        <time>2019-09-29T12:50:38+02:00</time>
      </trkpt>
      <trkpt lat="43.53272" lon="1.10487">
        <ele>285</ele>
        <time>2019-09-29T12:50:45+02:00</time>
      </trkpt>
      <trkpt lat="43.53275" lon="1.105">
        <ele>285</ele>
        <time>2019-09-29T12:50:53+02:00</time>
      </trkpt>
      <trkpt lat="43.53274" lon="1.10514">
        <ele>285</ele>
        <time>2019-09-29T12:51:01+02:00</time>
      </trkpt>
      <trkpt lat="43.53272" lon="1.10528">
        <ele>284</ele>
        <time>2019-09-29T12:51:10+02:00</time>
      </trkpt>
      <trkpt lat="43.53265" lon="1.10536">
        <ele>283</ele>
        <time>2019-09-29T12:51:18+02:00</time>
      </trkpt>
      <trkpt lat="43.53256" lon="1.1054">
        <ele>281</ele>
        <time>2019-09-29T12:51:25+02:00</time>
      </trkpt>
      <trkpt lat="43.53246" lon="1.10545">
        <ele>280</ele>
        <time>2019-09-29T12:51:34+02:00</time>
      </trkpt>
      <trkpt lat="43.53237" lon="1.10548">
        <ele>278</ele>
        <time>2019-09-29T12:51:41+02:00</time>
      </trkpt>
      <trkpt lat="43.53227" lon="1.10551">
        <ele>276</ele>
        <time>2019-09-29T12:51:49+02:00</time>
      </trkpt>
      <trkpt lat="43.53218" lon="1.10555">
        <ele>274</ele>
        <time>2019-09-29T12:51:57+02:00</time>
      </trkpt>
      <trkpt lat="43.53217" lon="1.10568">
        <ele>274</ele>
        <time>2019-09-29T12:52:05+02:00</time>
      </trkpt>
      <trkpt lat="43.53214" lon="1.10581">
        <ele>273</ele>
        <time>2019-09-29T12:52:13+02:00</time>
      </trkpt>
      <trkpt lat="43.53208" lon="1.10591">
        <ele>272</ele>
        <time>2019-09-29T12:52:20+02:00</time>
      </trkpt>
      <trkpt lat="43.532" lon="1.10598">
        <ele>272</ele>
        <time>2019-09-29T12:52:28+02:00</time>
      </trkpt>
      <trkpt lat="43.5319" lon="1.10598">
        <ele>271</ele>
        <time>2019-09-29T12:52:36+02:00</time>
      </trkpt>
      <trkpt lat="43.53181" lon="1.10601">
        <ele>270</ele>
        <time>2019-09-29T12:52:44+02:00</time>
      </trkpt>
      <trkpt lat="43.53172" lon="1.10608">
        <ele>269</ele>
        <time>2019-09-29T12:52:52+02:00</time>
      </trkpt>
      <trkpt lat="43.53163" lon="1.10612">
        <ele>269</ele>
        <time>2019-09-29T12:53:00+02:00</time>
      </trkpt>
      <trkpt lat="43.53153" lon="1.10615">
        <ele>269</ele>
        <time>2019-09-29T12:53:08+02:00</time>
      </trkpt>
      <trkpt lat="43.53143" lon="1.10617">
        <ele>270</ele>
        <time>2019-09-29T12:53:16+02:00</time>
      </trkpt>
      <trkpt lat="43.53134" lon="1.1062">
        <ele>270</ele>
        <time>2019-09-29T12:53:24+02:00</time>
      </trkpt>
      <trkpt lat="43.53127" lon="1.10629">
        <ele>270</ele>
        <time>2019-09-29T12:53:31+02:00</time>
      </trkpt>
      <trkpt lat="43.53128" lon="1.10641">
        <ele>269</ele>
        <time>2019-09-29T12:53:38+02:00</time>
      </trkpt>
      <trkpt lat="43.53133" lon="1.10653">
        <ele>269</ele>
        <time>2019-09-29T12:53:46+02:00</time>
      </trkpt>
      <trkpt lat="43.53139" lon="1.10664">
        <ele>268</ele>
        <time>2019-09-29T12:53:54+02:00</time>
      </trkpt>
      <trkpt lat="43.53139" lon="1.10677">
        <ele>268</ele>
        <time>2019-09-29T12:54:02+02:00</time>
      </trkpt>
      <trkpt lat="43.53145" lon="1.10689">
        <ele>268</ele>
        <time>2019-09-29T12:54:10+02:00</time>
      </trkpt>
      <trkpt lat="43.53147" lon="1.10701">
        <ele>267</ele>
        <time>2019-09-29T12:54:18+02:00</time>
      </trkpt>
      <trkpt lat="43.53151" lon="1.10713">
        <ele>266</ele>
        <time>2019-09-29T12:54:25+02:00</time>
      </trkpt>
      <trkpt lat="43.53153" lon="1.10726">
        <ele>266</ele>
        <time>2019-09-29T12:54:33+02:00</time>
      </trkpt>
      <trkpt lat="43.53155" lon="1.10739">
        <ele>266</ele>
        <time>2019-09-29T12:54:41+02:00</time>
      </trkpt>
      <trkpt lat="43.53156" lon="1.10752">
        <ele>266</ele>
        <time>2019-09-29T12:54:48+02:00</time>
      </trkpt>
      <trkpt lat="43.53163" lon="1.10761">
        <ele>265</ele>
        <time>2019-09-29T12:54:56+02:00</time>
      </trkpt>
      <trkpt lat="43.53166" lon="1.10772">
        <ele>265</ele>
        <time>2019-09-29T12:55:03+02:00</time>
      </trkpt>
      <trkpt lat="43.53167" lon="1.10786">
        <ele>265</ele>
        <time>2019-09-29T12:55:11+02:00</time>
      </trkpt>
      <trkpt lat="43.53171" lon="1.10798">
        <ele>266</ele>
        <time>2019-09-29T12:55:19+02:00</time>
      </trkpt>
      <trkpt lat="43.53171" lon="1.1081">
        <ele>266</ele>
        <time>2019-09-29T12:55:26+02:00</time>
      </trkpt>
      <trkpt lat="43.53178" lon="1.1082">
        <ele>266</ele>
        <time>2019-09-29T12:55:34+02:00</time>
      </trkpt>
      <trkpt lat="43.53183" lon="1.10831">
        <ele>265</ele>
        <time>2019-09-29T12:55:42+02:00</time>
      </trkpt>
      <trkpt lat="43.53191" lon="1.10842">
        <ele>265</ele>
        <time>2019-09-29T12:55:51+02:00</time>
      </trkpt>
      <trkpt lat="43.53197" lon="1.10853">
        <ele>265</ele>
        <time>2019-09-29T12:55:59+02:00</time>
      </trkpt>
      <trkpt lat="43.53196" lon="1.10866">
        <ele>265</ele>
        <time>2019-09-29T12:56:07+02:00</time>
      </trkpt>
      <trkpt lat="43.53202" lon="1.10878">
        <ele>265</ele>
        <time>2019-09-29T12:56:15+02:00</time>
      </trkpt>
      <trkpt lat="43.53191" lon="1.10885">
        <ele>265</ele>
        <time>2019-09-29T12:56:25+02:00</time>
      </trkpt>
      <trkpt lat="43.53182" lon="1.10885">
        <ele>266</ele>
        <time>2019-09-29T12:56:33+02:00</time>
      </trkpt>
      <trkpt lat="43.53173" lon="1.10888">
        <ele>267</ele>
        <time>2019-09-29T12:56:40+02:00</time>
      </trkpt>
      <trkpt lat="43.53164" lon="1.10894">
        <ele>269</ele>
        <time>2019-09-29T12:56:49+02:00</time>
      </trkpt>
      <trkpt lat="43.53154" lon="1.10899">
        <ele>270</ele>
        <time>2019-09-29T12:56:57+02:00</time>
      </trkpt>
      <trkpt lat="43.53144" lon="1.10902">
        <ele>272</ele>
        <time>2019-09-29T12:57:05+02:00</time>
      </trkpt>
      <trkpt lat="43.53134" lon="1.10904">
        <ele>273</ele>
        <time>2019-09-29T12:57:13+02:00</time>
      </trkpt>
      <trkpt lat="43.53126" lon="1.10908">
        <ele>275</ele>
        <time>2019-09-29T12:57:20+02:00</time>
      </trkpt>
      <trkpt lat="43.53117" lon="1.10915">
        <ele>278</ele>
        <time>2019-09-29T12:57:29+02:00</time>
      </trkpt>
      <trkpt lat="43.53108" lon="1.10917">
        <ele>279</ele>
        <time>2019-09-29T12:57:37+02:00</time>
      </trkpt>
      <trkpt lat="43.53098" lon="1.1092">
        <ele>281</ele>
        <time>2019-09-29T12:57:45+02:00</time>
      </trkpt>
      <trkpt lat="43.53088" lon="1.10922">
        <ele>282</ele>
        <time>2019-09-29T12:57:53+02:00</time>
      </trkpt>
      <trkpt lat="43.53078" lon="1.10926">
        <ele>284</ele>
        <time>2019-09-29T12:58:01+02:00</time>
      </trkpt>
      <trkpt lat="43.53069" lon="1.10927">
        <ele>285</ele>
        <time>2019-09-29T12:58:09+02:00</time>
      </trkpt>
      <trkpt lat="43.53059" lon="1.1093">
        <ele>287</ele>
        <time>2019-09-29T12:58:17+02:00</time>
      </trkpt>
      <trkpt lat="43.5305" lon="1.10932">
        <ele>288</ele>
        <time>2019-09-29T12:58:24+02:00</time>
      </trkpt>
      <trkpt lat="43.5304" lon="1.10934">
        <ele>289</ele>
        <time>2019-09-29T12:58:32+02:00</time>
      </trkpt>
      <trkpt lat="43.53031" lon="1.10938">
        <ele>290</ele>
        <time>2019-09-29T12:58:40+02:00</time>
      </trkpt>
      <trkpt lat="43.53022" lon="1.10938">
        <ele>291</ele>
        <time>2019-09-29T12:58:47+02:00</time>
      </trkpt>
      <trkpt lat="43.53013" lon="1.10943">
        <ele>292</ele>
        <time>2019-09-29T12:58:54+02:00</time>
      </trkpt>
      <trkpt lat="43.53004" lon="1.10947">
        <ele>294</ele>
        <time>2019-09-29T12:59:02+02:00</time>
      </trkpt>
      <trkpt lat="43.52995" lon="1.10951">
        <ele>295</ele>
        <time>2019-09-29T12:59:10+02:00</time>
      </trkpt>
      <trkpt lat="43.52985" lon="1.10955">
        <ele>296</ele>
        <time>2019-09-29T12:59:18+02:00</time>
      </trkpt>
      <trkpt lat="43.52976" lon="1.10957">
        <ele>297</ele>
        <time>2019-09-29T12:59:26+02:00</time>
      </trkpt>
      <trkpt lat="43.52967" lon="1.10959">
        <ele>298</ele>
        <time>2019-09-29T12:59:33+02:00</time>
      </trkpt>
      <trkpt lat="43.52957" lon="1.10959">
        <ele>298</ele>
        <time>2019-09-29T12:59:41+02:00</time>
      </trkpt>
      <trkpt lat="43.52948" lon="1.10961">
        <ele>299</ele>
        <time>2019-09-29T12:59:49+02:00</time>
      </trkpt>
      <trkpt lat="43.52938" lon="1.1096">
        <ele>300</ele>
        <time>2019-09-29T12:59:56+02:00</time>
      </trkpt>
      <trkpt lat="43.52929" lon="1.1096">
        <ele>301</ele>
        <time>2019-09-29T13:00:04+02:00</time>
      </trkpt>
      <trkpt lat="43.52919" lon="1.10962">
        <ele>301</ele>
        <time>2019-09-29T13:00:12+02:00</time>
      </trkpt>
      <trkpt lat="43.5291" lon="1.10963">
        <ele>302</ele>
        <time>2019-09-29T13:00:19+02:00</time>
      </trkpt>
      <trkpt lat="43.52901" lon="1.10962">
        <ele>303</ele>
        <time>2019-09-29T13:00:26+02:00</time>
      </trkpt>
      <trkpt lat="43.52892" lon="1.10964">
        <ele>303</ele>
        <time>2019-09-29T13:00:33+02:00</time>
      </trkpt>
      <trkpt lat="43.52882" lon="1.10965">
        <ele>304</ele>
        <time>2019-09-29T13:00:42+02:00</time>
      </trkpt>
      <trkpt lat="43.52872" lon="1.10967">
        <ele>304</ele>
        <time>2019-09-29T13:00:50+02:00</time>
      </trkpt>
      <trkpt lat="43.52862" lon="1.1097">
        <ele>305</ele>
        <time>2019-09-29T13:00:58+02:00</time>
      </trkpt>
      <trkpt lat="43.52852" lon="1.10972">
        <ele>305</ele>
        <time>2019-09-29T13:01:06+02:00</time>
      </trkpt>
      <trkpt lat="43.52843" lon="1.10975">
        <ele>305</ele>
        <time>2019-09-29T13:01:14+02:00</time>
      </trkpt>
      <trkpt lat="43.52845" lon="1.10988">
        <ele>305</ele>
        <time>2019-09-29T13:01:21+02:00</time>
      </trkpt>
      <trkpt lat="43.52848" lon="1.11">
        <ele>305</ele>
        <time>2019-09-29T13:01:29+02:00</time>
      </trkpt>
      <trkpt lat="43.52853" lon="1.11012">
        <ele>305</ele>
        <time>2019-09-29T13:01:37+02:00</time>
      </trkpt>
      <trkpt lat="43.52856" lon="1.11024">
        <ele>305</ele>
        <time>2019-09-29T13:01:44+02:00</time>
      </trkpt>
      <trkpt lat="43.52863" lon="1.11036">
        <ele>305</ele>
        <time>2019-09-29T13:01:53+02:00</time>
      </trkpt>
      <trkpt lat="43.52865" lon="1.11048">
        <ele>305</ele>
        <time>2019-09-29T13:02:01+02:00</time>
      </trkpt>
      <trkpt lat="43.52871" lon="1.11058">
        <ele>305</ele>
        <time>2019-09-29T13:02:08+02:00</time>
      </trkpt>
      <trkpt lat="43.52874" lon="1.1107">
        <ele>305</ele>
        <time>2019-09-29T13:02:16+02:00</time>
      </trkpt>
      <trkpt lat="43.52878" lon="1.11083">
        <ele>305</ele>
        <time>2019-09-29T13:02:24+02:00</time>
      </trkpt>
      <trkpt lat="43.52882" lon="1.11094">
        <ele>305</ele>
        <time>2019-09-29T13:02:31+02:00</time>
      </trkpt>
      <trkpt lat="43.52887" lon="1.11106">
        <ele>305</ele>
        <time>2019-09-29T13:02:39+02:00</time>
      </trkpt>
      <trkpt lat="43.52892" lon="1.11116">
        <ele>305</ele>
        <time>2019-09-29T13:02:47+02:00</time>
      </trkpt>
      <trkpt lat="43.52896" lon="1.11128">
        <ele>305</ele>
        <time>2019-09-29T13:02:55+02:00</time>
      </trkpt>
      <trkpt lat="43.529" lon="1.1114">
        <ele>305</ele>
        <time>2019-09-29T13:03:02+02:00</time>
      </trkpt>
      <trkpt lat="43.52905" lon="1.11151">
        <ele>305</ele>
        <time>2019-09-29T13:03:10+02:00</time>
      </trkpt>
      <trkpt lat="43.5291" lon="1.11163">
        <ele>305</ele>
        <time>2019-09-29T13:03:18+02:00</time>
      </trkpt>
      <trkpt lat="43.52912" lon="1.11176">
        <ele>305</ele>
        <time>2019-09-29T13:03:26+02:00</time>
      </trkpt>
      <trkpt lat="43.52918" lon="1.11186">
        <ele>305</ele>
        <time>2019-09-29T13:03:33+02:00</time>
      </trkpt>
      <trkpt lat="43.52921" lon="1.11197">
        <ele>305</ele>
        <time>2019-09-29T13:03:41+02:00</time>
      </trkpt>
      <trkpt lat="43.52927" lon="1.11209">
        <ele>305</ele>
        <time>2019-09-29T13:03:49+02:00</time>
      </trkpt>
      <trkpt lat="43.52931" lon="1.1122">
        <ele>304</ele>
        <time>2019-09-29T13:03:57+02:00</time>
      </trkpt>
    </trkseg>
  </trk>
</gpx>